sensor_id;sensor_type;location;lat;lon;timestamp;pressure;altitude;pressure_sealevel;temperature;humidity
53262;BME280;39658;51.090;-1.786;2022-12-05T00:00:13;101185.50;;;20.25;53.17
53262;BME280;39658;51.090;-1.786;2022-12-05T00:02:40;101195.91;;;20.28;53.16
53262;BME280;39658;51.090;-1.786;2022-12-05T00:05:09;101192.78;;;20.31;53.09
53262;BME280;39658;51.090;-1.786;2022-12-05T00:07:36;101194.66;;;20.37;52.99
53262;BME280;39658;51.090;-1.786;2022-12-05T00:10:06;101192.03;;;20.44;53.06
53262;BME280;39658;51.090;-1.786;2022-12-05T00:12:32;101185.56;;;20.51;52.97
53262;BME280;39658;51.090;-1.786;2022-12-05T00:14:59;101194.28;;;20.60;52.77
53262;BME280;39658;51.090;-1.786;2022-12-05T00:17:26;101188.66;;;20.68;52.68
53262;BME280;39658;51.090;-1.786;2022-12-05T00:19:53;101194.69;;;20.77;52.54
53262;BME280;39658;51.090;-1.786;2022-12-05T00:22:19;101183.69;;;20.85;52.49
53262;BME280;39658;51.090;-1.786;2022-12-05T00:24:46;101188.84;;;20.93;52.34
53262;BME280;39658;51.090;-1.786;2022-12-05T00:27:14;101190.50;;;21.01;52.02
53262;BME280;39658;51.090;-1.786;2022-12-05T00:29:41;101185.91;;;21.08;52.14
53262;BME280;39658;51.090;-1.786;2022-12-05T00:32:08;101183.16;;;21.14;51.88
53262;BME280;39658;51.090;-1.786;2022-12-05T00:34:34;101179.44;;;21.22;51.74
53262;BME280;39658;51.090;-1.786;2022-12-05T00:37:02;101191.91;;;21.30;51.69
53262;BME280;39658;51.090;-1.786;2022-12-05T00:39:28;101181.91;;;21.37;51.40
53262;BME280;39658;51.090;-1.786;2022-12-05T00:41:55;101181.88;;;21.43;51.17
53262;BME280;39658;51.090;-1.786;2022-12-05T00:44:23;101187.25;;;21.50;51.37
53262;BME280;39658;51.090;-1.786;2022-12-05T00:46:50;101185.56;;;21.55;51.14
53262;BME280;39658;51.090;-1.786;2022-12-05T00:49:17;101190.13;;;21.62;50.95
53262;BME280;39658;51.090;-1.786;2022-12-05T00:51:44;101188.44;;;21.67;50.72
53262;BME280;39658;51.090;-1.786;2022-12-05T00:54:13;101185.69;;;21.74;50.88
53262;BME280;39658;51.090;-1.786;2022-12-05T00:56:40;101193.16;;;21.78;50.81
53262;BME280;39658;51.090;-1.786;2022-12-05T00:59:07;101186.88;;;21.84;50.76
53262;BME280;39658;51.090;-1.786;2022-12-05T01:01:37;101189.75;;;21.89;50.61
53262;BME280;39658;51.090;-1.786;2022-12-05T01:04:08;101189.94;;;21.95;50.38
53262;BME280;39658;51.090;-1.786;2022-12-05T01:06:36;101182.81;;;22.00;50.42
53262;BME280;39658;51.090;-1.786;2022-12-05T01:09:03;101181.38;;;22.04;50.30
53262;BME280;39658;51.090;-1.786;2022-12-05T01:11:31;101193.22;;;22.10;50.18
53262;BME280;39658;51.090;-1.786;2022-12-05T01:13:58;101190.69;;;22.15;49.78
53262;BME280;39658;51.090;-1.786;2022-12-05T01:16:27;101190.03;;;22.19;50.02
53262;BME280;39658;51.090;-1.786;2022-12-05T01:18:57;101192.06;;;22.24;49.88
53262;BME280;39658;51.090;-1.786;2022-12-05T01:21:24;101199.53;;;22.29;49.87
53262;BME280;39658;51.090;-1.786;2022-12-05T01:23:51;101200.75;;;22.33;49.90
53262;BME280;39658;51.090;-1.786;2022-12-05T01:26:20;101200.72;;;22.39;49.92
53262;BME280;39658;51.090;-1.786;2022-12-05T01:28:47;101200.28;;;22.42;49.78
53262;BME280;39658;51.090;-1.786;2022-12-05T01:31:17;101207.75;;;22.47;49.64
53262;BME280;39658;51.090;-1.786;2022-12-05T01:33:46;101215.25;;;22.51;49.58
53262;BME280;39658;51.090;-1.786;2022-12-05T01:36:15;101215.63;;;22.55;49.83
53262;BME280;39658;51.090;-1.786;2022-12-05T01:38:42;101217.66;;;22.60;49.80
53262;BME280;39658;51.090;-1.786;2022-12-05T01:41:12;101218.28;;;22.62;49.61
53262;BME280;39658;51.090;-1.786;2022-12-05T01:43:56;101220.31;;;22.66;49.57
53262;BME280;39658;51.090;-1.786;2022-12-05T01:46:23;101214.06;;;22.66;49.59
53262;BME280;39658;51.090;-1.786;2022-12-05T01:48:54;101214.66;;;22.68;49.71
53262;BME280;39658;51.090;-1.786;2022-12-05T01:51:23;101223.88;;;22.67;49.69
53262;BME280;39658;51.090;-1.786;2022-12-05T01:53:50;101222.19;;;22.66;49.69
53262;BME280;39658;51.090;-1.786;2022-12-05T01:56:17;101224.31;;;22.64;49.74
53262;BME280;39658;51.090;-1.786;2022-12-05T01:58:46;101219.31;;;22.61;49.66
53262;BME280;39658;51.090;-1.786;2022-12-05T02:01:14;101228.75;;;22.58;49.67
53262;BME280;39658;51.090;-1.786;2022-12-05T02:03:43;101225.41;;;22.56;50.01
53262;BME280;39658;51.090;-1.786;2022-12-05T02:06:12;101232.34;;;22.52;49.68
53262;BME280;39658;51.090;-1.786;2022-12-05T02:08:40;101225.69;;;22.48;49.83
53262;BME280;39658;51.090;-1.786;2022-12-05T02:11:07;101232.41;;;22.45;49.92
53262;BME280;39658;51.090;-1.786;2022-12-05T02:13:52;101225.94;;;22.40;49.99
53262;BME280;39658;51.090;-1.786;2022-12-05T02:16:31;101236.41;;;22.36;50.10
53262;BME280;39658;51.090;-1.786;2022-12-05T02:19:16;101227.50;;;22.29;50.19
53262;BME280;39658;51.090;-1.786;2022-12-05T02:22:22;101232.75;;;22.24;50.32
53262;BME280;39658;51.090;-1.786;2022-12-05T02:25:09;101224.66;;;22.17;50.36
53262;BME280;39658;51.090;-1.786;2022-12-05T02:30:40;101238.91;;;22.06;50.39
53262;BME280;39658;51.090;-1.786;2022-12-05T02:33:16;101228.06;;;22.00;50.46
53262;BME280;39658;51.090;-1.786;2022-12-05T02:35:53;101232.25;;;21.96;50.62
53262;BME280;39658;51.090;-1.786;2022-12-05T02:38:28;101227.69;;;21.89;50.59
53262;BME280;39658;51.090;-1.786;2022-12-05T02:41:04;101229.41;;;21.84;50.84
53262;BME280;39658;51.090;-1.786;2022-12-05T02:43:38;101230.25;;;21.78;50.86
53262;BME280;39658;51.090;-1.786;2022-12-05T02:46:11;101232.78;;;21.73;50.87
53262;BME280;39658;51.090;-1.786;2022-12-05T02:48:41;101234.50;;;21.67;51.04
53262;BME280;39658;51.090;-1.786;2022-12-05T02:51:09;101235.97;;;21.63;51.00
53262;BME280;39658;51.090;-1.786;2022-12-05T02:53:41;101246.81;;;21.56;51.04
53262;BME280;39658;51.090;-1.786;2022-12-05T02:56:09;101244.72;;;21.52;51.15
53262;BME280;39658;51.090;-1.786;2022-12-05T02:58:40;101248.09;;;21.47;51.21
53262;BME280;39658;51.090;-1.786;2022-12-05T03:01:11;101248.72;;;21.43;51.34
53262;BME280;39658;51.090;-1.786;2022-12-05T03:03:38;101243.13;;;21.38;51.46
53262;BME280;39658;51.090;-1.786;2022-12-05T03:06:08;101242.09;;;21.32;51.44
53262;BME280;39658;51.090;-1.786;2022-12-05T03:08:40;101235.66;;;21.26;51.66
53262;BME280;39658;51.090;-1.786;2022-12-05T03:11:08;101242.50;;;21.22;51.72
53262;BME280;39658;51.090;-1.786;2022-12-05T03:13:40;101241.47;;;21.17;51.77
53262;BME280;39658;51.090;-1.786;2022-12-05T03:16:12;101240.22;;;21.13;51.96
53262;BME280;39658;51.090;-1.786;2022-12-05T03:18:45;101242.72;;;21.08;51.95
53262;BME280;39658;51.090;-1.786;2022-12-05T03:21:19;101240.66;;;21.03;52.10
53262;BME280;39658;51.090;-1.786;2022-12-05T03:23:50;101239.63;;;20.98;52.00
53262;BME280;39658;51.090;-1.786;2022-12-05T03:26:30;101243.81;;;20.93;52.17
53262;BME280;39658;51.090;-1.786;2022-12-05T03:29:03;101225.72;;;20.87;52.34
53262;BME280;39658;51.090;-1.786;2022-12-05T03:31:40;101235.28;;;20.83;52.38
53262;BME280;39658;51.090;-1.786;2022-12-05T03:34:14;101231.31;;;20.79;52.43
53262;BME280;39658;51.090;-1.786;2022-12-05T03:36:45;101234.63;;;20.75;52.55
53262;BME280;39658;51.090;-1.786;2022-12-05T03:39:19;101232.56;;;20.70;52.65
53262;BME280;39658;51.090;-1.786;2022-12-05T03:41:54;101241.31;;;20.65;52.67
53262;BME280;39658;51.090;-1.786;2022-12-05T03:44:31;101243.59;;;20.62;52.76
53262;BME280;39658;51.090;-1.786;2022-12-05T03:47:04;101249.63;;;20.57;52.81
53262;BME280;39658;51.090;-1.786;2022-12-05T03:49:34;101243.81;;;20.54;52.99
53262;BME280;39658;51.090;-1.786;2022-12-05T03:52:06;101243.38;;;20.50;52.89
53262;BME280;39658;51.090;-1.786;2022-12-05T03:54:37;101242.97;;;20.47;53.01
53262;BME280;39658;51.090;-1.786;2022-12-05T03:57:09;101252.53;;;20.43;53.02
53262;BME280;39658;51.090;-1.786;2022-12-05T03:59:40;101250.22;;;20.40;53.05
53262;BME280;39658;51.090;-1.786;2022-12-05T04:02:14;101259.75;;;20.35;53.19
53262;BME280;39658;51.090;-1.786;2022-12-05T04:04:44;101253.91;;;20.32;53.34
53262;BME280;39658;51.090;-1.786;2022-12-05T04:07:15;101267.00;;;20.28;53.20
53262;BME280;39658;51.090;-1.786;2022-12-05T04:09:45;101264.72;;;20.25;53.27
53262;BME280;39658;51.090;-1.786;2022-12-05T04:12:19;101264.31;;;20.22;53.40
53262;BME280;39658;51.090;-1.786;2022-12-05T04:14:49;101266.38;;;20.20;53.37
53262;BME280;39658;51.090;-1.786;2022-12-05T04:17:22;101257.03;;;20.16;53.42
53262;BME280;39658;51.090;-1.786;2022-12-05T04:19:52;101264.50;;;20.14;53.44
53262;BME280;39658;51.090;-1.786;2022-12-05T04:22:38;101264.91;;;20.11;53.55
53262;BME280;39658;51.090;-1.786;2022-12-05T04:25:08;101270.72;;;20.08;53.52
53262;BME280;39658;51.090;-1.786;2022-12-05T04:27:58;101275.69;;;20.04;53.57
53262;BME280;39658;51.090;-1.786;2022-12-05T04:30:34;101281.47;;;20.01;53.70
53262;BME280;39658;51.090;-1.786;2022-12-05T04:33:05;101277.31;;;19.98;53.69
53262;BME280;39658;51.090;-1.786;2022-12-05T04:35:39;101278.56;;;19.96;53.70
53262;BME280;39658;51.090;-1.786;2022-12-05T04:38:11;101268.16;;;19.93;53.72
53262;BME280;39658;51.090;-1.786;2022-12-05T04:40:43;101265.84;;;19.90;53.76
53262;BME280;39658;51.090;-1.786;2022-12-05T04:43:14;101261.69;;;19.87;53.82
53262;BME280;39658;51.090;-1.786;2022-12-05T04:45:42;101263.97;;;19.84;54.02
53262;BME280;39658;51.090;-1.786;2022-12-05T04:48:13;101267.72;;;19.83;53.92
53262;BME280;39658;51.090;-1.786;2022-12-05T04:50:44;101268.13;;;19.80;54.08
53262;BME280;39658;51.090;-1.786;2022-12-05T04:53:13;101276.63;;;19.77;53.98
53262;BME280;39658;51.090;-1.786;2022-12-05T04:55:42;101272.47;;;19.74;54.14
53262;BME280;39658;51.090;-1.786;2022-12-05T04:58:14;101279.09;;;19.71;54.01
53262;BME280;39658;51.090;-1.786;2022-12-05T05:00:46;101281.16;;;19.69;54.41
53262;BME280;39658;51.090;-1.786;2022-12-05T05:03:18;101277.19;;;19.65;54.29
53262;BME280;39658;51.090;-1.786;2022-12-05T05:05:47;101282.81;;;19.64;54.15
53262;BME280;39658;51.090;-1.786;2022-12-05T05:08:16;101284.88;;;19.62;54.08
53262;BME280;39658;51.090;-1.786;2022-12-05T05:10:49;101279.84;;;19.59;54.17
53262;BME280;39658;51.090;-1.786;2022-12-05T05:13:17;101292.72;;;19.57;54.38
53262;BME280;39658;51.090;-1.786;2022-12-05T05:15:44;101292.06;;;19.55;54.33
53262;BME280;39658;51.090;-1.786;2022-12-05T05:18:11;101289.75;;;19.52;54.44
53262;BME280;39658;51.090;-1.786;2022-12-05T05:20:39;101298.03;;;19.50;54.33
53262;BME280;39658;51.090;-1.786;2022-12-05T05:23:06;101301.78;;;19.49;54.34
53262;BME280;39658;51.090;-1.786;2022-12-05T05:25:32;101299.47;;;19.46;54.27
53262;BME280;39658;51.090;-1.786;2022-12-05T05:27:59;101296.13;;;19.44;54.21
53262;BME280;39658;51.090;-1.786;2022-12-05T05:30:26;101298.41;;;19.40;54.56
53262;BME280;39658;51.090;-1.786;2022-12-05T05:32:53;101300.47;;;19.38;54.51
53262;BME280;39658;51.090;-1.786;2022-12-05T05:35:20;101313.34;;;19.36;54.33
53262;BME280;39658;51.090;-1.786;2022-12-05T05:37:48;101310.84;;;19.35;54.39
53262;BME280;39658;51.090;-1.786;2022-12-05T05:40:15;101314.75;;;19.32;54.35
53262;BME280;39658;51.090;-1.786;2022-12-05T05:42:43;101311.44;;;19.30;54.55
53262;BME280;39658;51.090;-1.786;2022-12-05T05:45:11;101324.28;;;19.28;54.70
53262;BME280;39658;51.090;-1.786;2022-12-05T05:47:38;101324.69;;;19.25;54.22
53262;BME280;39658;51.090;-1.786;2022-12-05T05:50:06;101322.19;;;19.24;54.39
53262;BME280;39658;51.090;-1.786;2022-12-05T05:52:33;101331.31;;;19.23;54.39
53262;BME280;39658;51.090;-1.786;2022-12-05T05:55:03;101325.25;;;19.21;54.56
53262;BME280;39658;51.090;-1.786;2022-12-05T05:57:30;101332.69;;;19.19;54.59
53262;BME280;39658;51.090;-1.786;2022-12-05T05:59:57;101332.06;;;19.17;54.52
53262;BME280;39658;51.090;-1.786;2022-12-05T06:02:24;101336.81;;;19.15;54.29
53262;BME280;39658;51.090;-1.786;2022-12-05T06:04:51;101335.34;;;19.12;54.41
53262;BME280;39658;51.090;-1.786;2022-12-05T06:07:18;101340.75;;;19.12;54.49
53262;BME280;39658;51.090;-1.786;2022-12-05T06:09:44;101342.41;;;19.13;54.45
53262;BME280;39658;51.090;-1.786;2022-12-05T06:12:12;101346.59;;;19.16;54.50
53262;BME280;39658;51.090;-1.786;2022-12-05T06:14:39;101350.56;;;19.20;54.20
53262;BME280;39658;51.090;-1.786;2022-12-05T06:17:06;101353.72;;;19.23;54.18
53262;BME280;39658;51.090;-1.786;2022-12-05T06:19:32;101359.16;;;19.30;54.08
53262;BME280;39658;51.090;-1.786;2022-12-05T06:21:59;101349.44;;;19.35;54.00
53262;BME280;39658;51.090;-1.786;2022-12-05T06:24:26;101357.38;;;19.44;53.92
53262;BME280;39658;51.090;-1.786;2022-12-05T06:26:53;101364.50;;;19.51;53.59
53262;BME280;39658;51.090;-1.786;2022-12-05T06:29:21;101360.00;;;19.58;53.62
53262;BME280;39658;51.090;-1.786;2022-12-05T06:31:48;101359.88;;;19.66;53.35
53262;BME280;39658;51.090;-1.786;2022-12-05T06:34:15;101359.50;;;19.76;53.29
53262;BME280;39658;51.090;-1.786;2022-12-05T06:36:41;101364.53;;;19.86;53.20
53262;BME280;39658;51.090;-1.786;2022-12-05T06:39:08;101366.25;;;19.93;53.01
53262;BME280;39658;51.090;-1.786;2022-12-05T06:41:35;101368.59;;;20.03;52.84
53262;BME280;39658;51.090;-1.786;2022-12-05T06:44:02;101369.06;;;20.13;52.82
53262;BME280;39658;51.090;-1.786;2022-12-05T06:46:30;101370.75;;;20.21;52.59
53262;BME280;39658;51.090;-1.786;2022-12-05T06:48:57;101373.91;;;20.31;52.53
53262;BME280;39658;51.090;-1.786;2022-12-05T06:51:24;101370.16;;;20.39;52.30
53262;BME280;39658;51.090;-1.786;2022-12-05T06:53:51;101372.53;;;20.48;52.15
53262;BME280;39658;51.090;-1.786;2022-12-05T06:56:19;101374.03;;;20.57;52.13
53262;BME280;39658;51.090;-1.786;2022-12-05T06:58:47;101381.09;;;20.65;51.94
53262;BME280;39658;51.090;-1.786;2022-12-05T07:01:16;101379.03;;;20.74;51.87
53262;BME280;39658;51.090;-1.786;2022-12-05T07:04:02;101381.56;;;20.82;51.63
53262;BME280;39658;51.090;-1.786;2022-12-05T07:06:30;101378.88;;;20.88;51.62
53262;BME280;39658;51.090;-1.786;2022-12-05T07:08:57;101378.66;;;20.96;51.37
53262;BME280;39658;51.090;-1.786;2022-12-05T07:11:24;101384.91;;;21.04;51.34
53262;BME280;39658;51.090;-1.786;2022-12-05T07:13:51;101390.31;;;21.10;51.08
53262;BME280;39658;51.090;-1.786;2022-12-05T07:16:18;101392.41;;;21.15;51.07
53262;BME280;39658;51.090;-1.786;2022-12-05T07:18:45;101398.88;;;21.20;51.12
53262;BME280;39658;51.090;-1.786;2022-12-05T07:21:14;101406.22;;;21.26;50.95
53262;BME280;39658;51.090;-1.786;2022-12-05T07:23:43;101407.66;;;21.29;50.89
53262;BME280;39658;51.090;-1.786;2022-12-05T07:26:11;101415.59;;;21.31;50.81
53262;BME280;39658;51.090;-1.786;2022-12-05T07:28:39;101413.50;;;21.33;50.72
53262;BME280;39658;51.090;-1.786;2022-12-05T07:31:08;101421.63;;;21.33;50.75
53262;BME280;39658;51.090;-1.786;2022-12-05T07:33:35;101422.44;;;21.33;50.63
53262;BME280;39658;51.090;-1.786;2022-12-05T07:36:04;101422.44;;;21.33;50.65
53262;BME280;39658;51.090;-1.786;2022-12-05T07:38:33;101431.63;;;21.32;50.46
53262;BME280;39658;51.090;-1.786;2022-12-05T07:41:03;101429.13;;;21.31;50.60
53262;BME280;39658;51.090;-1.786;2022-12-05T07:43:30;101427.66;;;21.28;50.63
53262;BME280;39658;51.090;-1.786;2022-12-05T07:46:00;101428.69;;;21.27;50.68
53262;BME280;39658;51.090;-1.786;2022-12-05T07:48:27;101437.03;;;21.25;50.59
53262;BME280;39658;51.090;-1.786;2022-12-05T07:50:54;101437.03;;;21.25;50.29
53262;BME280;39658;51.090;-1.786;2022-12-05T07:53:24;101437.88;;;21.26;50.45
53262;BME280;39658;51.090;-1.786;2022-12-05T07:55:52;101440.16;;;21.29;50.38
53262;BME280;39658;51.090;-1.786;2022-12-05T07:58:19;101436.41;;;21.30;50.55
53262;BME280;39658;51.090;-1.786;2022-12-05T08:00:45;101440.78;;;21.31;50.29
53262;BME280;39658;51.090;-1.786;2022-12-05T08:03:12;101448.91;;;21.31;50.40
53262;BME280;39658;51.090;-1.786;2022-12-05T08:05:39;101449.72;;;21.32;50.35
53262;BME280;39658;51.090;-1.786;2022-12-05T08:08:06;101453.28;;;21.32;50.43
53262;BME280;39658;51.090;-1.786;2022-12-05T08:10:33;101449.31;;;21.35;50.54
53262;BME280;39658;51.090;-1.786;2022-12-05T08:13:01;101460.56;;;21.38;50.51
53262;BME280;39658;51.090;-1.786;2022-12-05T08:15:28;101455.78;;;21.40;50.49
53262;BME280;39658;51.090;-1.786;2022-12-05T08:17:54;101463.69;;;21.42;50.51
53262;BME280;39658;51.090;-1.786;2022-12-05T08:20:21;101459.94;;;21.43;50.53
53262;BME280;39658;51.090;-1.786;2022-12-05T08:22:50;101459.94;;;21.43;50.47
53262;BME280;39658;51.090;-1.786;2022-12-05T08:25:17;101458.91;;;21.44;50.39
53262;BME280;39658;51.090;-1.786;2022-12-05T08:27:44;101463.47;;;21.43;50.60
53262;BME280;39658;51.090;-1.786;2022-12-05T08:30:12;101466.41;;;21.42;50.49
53262;BME280;39658;51.090;-1.786;2022-12-05T08:32:39;101468.91;;;21.43;50.31
53262;BME280;39658;51.090;-1.786;2022-12-05T08:35:06;101466.19;;;21.43;50.41
53262;BME280;39658;51.090;-1.786;2022-12-05T08:37:34;101468.28;;;21.41;50.43
53262;BME280;39658;51.090;-1.786;2022-12-05T08:40:00;101464.09;;;21.39;50.53
53262;BME280;39658;51.090;-1.786;2022-12-05T08:42:27;101458.28;;;21.35;50.50
53262;BME280;39658;51.090;-1.786;2022-12-05T08:44:54;101463.28;;;21.32;50.54
53262;BME280;39658;51.090;-1.786;2022-12-05T08:47:22;101457.44;;;21.28;50.77
53262;BME280;39658;51.090;-1.786;2022-12-05T08:49:49;101468.69;;;21.25;50.60
53262;BME280;39658;51.090;-1.786;2022-12-05T08:52:15;101468.22;;;21.21;50.80
53262;BME280;39658;51.090;-1.786;2022-12-05T08:54:42;101472.38;;;21.17;50.72
53262;BME280;39658;51.090;-1.786;2022-12-05T08:57:09;101469.25;;;21.14;50.86
53262;BME280;39658;51.090;-1.786;2022-12-05T08:59:35;101470.69;;;21.10;50.87
53262;BME280;39658;51.090;-1.786;2022-12-05T09:02:02;101463.81;;;21.07;50.94
53262;BME280;39658;51.090;-1.786;2022-12-05T09:04:30;101466.31;;;21.02;51.07
53262;BME280;39658;51.090;-1.786;2022-12-05T09:07:00;101466.94;;;20.98;51.02
53262;BME280;39658;51.090;-1.786;2022-12-05T09:09:28;101461.09;;;20.94;51.05
53262;BME280;39658;51.090;-1.786;2022-12-05T09:11:56;101461.72;;;20.89;51.19
53262;BME280;39658;51.090;-1.786;2022-12-05T09:14:24;101465.88;;;20.85;51.14
53262;BME280;39658;51.090;-1.786;2022-12-05T09:16:58;101472.72;;;20.81;51.28
53262;BME280;39658;51.090;-1.786;2022-12-05T09:19:26;101481.22;;;20.78;51.31
53262;BME280;39658;51.090;-1.786;2022-12-05T09:21:55;101481.00;;;20.73;51.51
53262;BME280;39658;51.090;-1.786;2022-12-05T09:24:23;101484.94;;;20.71;51.45
53262;BME280;39658;51.090;-1.786;2022-12-05T09:26:50;101495.34;;;20.74;51.46
53262;BME280;39658;51.090;-1.786;2022-12-05T09:29:17;101488.47;;;20.71;51.50
53262;BME280;39658;51.090;-1.786;2022-12-05T09:31:45;101487.22;;;20.67;51.59
53262;BME280;39658;51.090;-1.786;2022-12-05T09:34:13;101496.78;;;20.63;51.62
53262;BME280;39658;51.090;-1.786;2022-12-05T09:36:40;101493.63;;;20.59;51.48
53262;BME280;39658;51.090;-1.786;2022-12-05T09:39:09;101485.28;;;20.54;51.58
53262;BME280;39658;51.090;-1.786;2022-12-05T09:41:51;101489.25;;;20.52;51.90
53262;BME280;39658;51.090;-1.786;2022-12-05T09:44:41;101489.84;;;20.47;51.84
53262;BME280;39658;51.090;-1.786;2022-12-05T09:47:16;101486.91;;;20.42;52.16
53262;BME280;39658;51.090;-1.786;2022-12-05T09:49:48;101480.19;;;20.38;52.13
53262;BME280;39658;51.090;-1.786;2022-12-05T09:52:23;101477.03;;;20.34;52.22
53262;BME280;39658;51.090;-1.786;2022-12-05T09:54:52;101482.00;;;20.31;52.83
53262;BME280;39658;51.090;-1.786;2022-12-05T09:57:25;101481.59;;;20.27;52.89
53262;BME280;39658;51.090;-1.786;2022-12-05T09:59:55;101475.94;;;20.22;53.51
53262;BME280;39658;51.090;-1.786;2022-12-05T10:02:25;101481.94;;;20.18;54.23
53262;BME280;39658;51.090;-1.786;2022-12-05T10:04:58;101489.81;;;20.13;55.02
53262;BME280;39658;51.090;-1.786;2022-12-05T10:07:33;101494.59;;;20.11;54.77
53262;BME280;39658;51.090;-1.786;2022-12-05T10:10:20;101488.34;;;20.10;55.05
53262;BME280;39658;51.090;-1.786;2022-12-05T10:12:58;101493.56;;;20.12;55.55
53262;BME280;39658;51.090;-1.786;2022-12-05T10:15:32;101497.72;;;20.14;55.81
53262;BME280;39658;51.090;-1.786;2022-12-05T10:18:03;101495.25;;;20.19;56.73
53262;BME280;39658;51.090;-1.786;2022-12-05T10:20:40;101490.09;;;20.24;56.74
53262;BME280;39658;51.090;-1.786;2022-12-05T10:23:16;101494.69;;;20.30;57.48
53262;BME280;39658;51.090;-1.786;2022-12-05T10:25:55;101499.31;;;20.37;57.84
53262;BME280;39658;51.090;-1.786;2022-12-05T10:28:28;101503.31;;;20.41;55.67
53262;BME280;39658;51.090;-1.786;2022-12-05T10:31:02;101497.13;;;20.47;55.74
53262;BME280;39658;51.090;-1.786;2022-12-05T10:33:36;101495.06;;;20.55;55.80
53262;BME280;39658;51.090;-1.786;2022-12-05T10:36:09;101492.81;;;20.59;53.77
53262;BME280;39658;51.090;-1.786;2022-12-05T10:38:36;101491.78;;;20.67;53.63
53262;BME280;39658;51.090;-1.786;2022-12-05T10:41:06;101491.59;;;20.75;54.29
53262;BME280;39658;51.090;-1.786;2022-12-05T10:43:35;101498.53;;;20.84;55.02
53262;BME280;39658;51.090;-1.786;2022-12-05T10:46:03;101500.22;;;20.91;55.08
53262;BME280;39658;51.090;-1.786;2022-12-05T10:48:35;101493.56;;;21.01;55.66
53262;BME280;39658;51.090;-1.786;2022-12-05T10:51:03;101495.88;;;21.10;55.97
53262;BME280;39658;51.090;-1.786;2022-12-05T10:53:37;101491.09;;;21.19;56.21
53262;BME280;39658;51.090;-1.786;2022-12-05T10:56:36;101485.13;;;21.30;56.70
53262;BME280;39658;51.090;-1.786;2022-12-05T10:59:04;101483.88;;;21.39;57.02
53262;BME280;39658;51.090;-1.786;2022-12-05T11:01:32;101481.59;;;21.43;54.35
53262;BME280;39658;51.090;-1.786;2022-12-05T11:04:00;101483.47;;;21.49;53.58
53262;BME280;39658;51.090;-1.786;2022-12-05T11:06:31;101488.47;;;21.52;54.29
53262;BME280;39658;51.090;-1.786;2022-12-05T11:09:04;101487.22;;;21.61;54.19
53262;BME280;39658;51.090;-1.786;2022-12-05T11:11:40;101487.66;;;21.71;54.10
53262;BME280;39658;51.090;-1.786;2022-12-05T11:14:20;101482.88;;;21.73;54.96
53262;BME280;39658;51.090;-1.786;2022-12-05T11:16:52;101485.78;;;21.72;56.54
53262;BME280;39658;51.090;-1.786;2022-12-05T11:19:25;101493.28;;;21.70;57.61
53262;BME280;39658;51.090;-1.786;2022-12-05T11:21:53;101488.28;;;21.67;58.62
53262;BME280;39658;51.090;-1.786;2022-12-05T11:24:21;101495.78;;;21.65;59.98
53262;BME280;39658;51.090;-1.786;2022-12-05T11:26:50;101488.91;;;21.62;60.58
53262;BME280;39658;51.090;-1.786;2022-12-05T11:29:34;101493.88;;;21.58;60.35
53262;BME280;39658;51.090;-1.786;2022-12-05T11:32:02;101491.38;;;21.57;61.93
53262;BME280;39658;51.090;-1.786;2022-12-05T11:34:34;101490.75;;;21.55;61.77
53262;BME280;39658;51.090;-1.786;2022-12-05T11:37:10;101494.94;;;21.51;61.44
53262;BME280;39658;51.090;-1.786;2022-12-05T11:39:38;101501.59;;;21.48;61.58
53262;BME280;39658;51.090;-1.786;2022-12-05T11:42:26;101500.13;;;21.46;62.78
53262;BME280;39658;51.090;-1.786;2022-12-05T11:45:20;101493.47;;;21.42;63.32
53262;BME280;39658;51.090;-1.786;2022-12-05T11:48:16;101490.13;;;21.40;64.27
53262;BME280;39658;51.090;-1.786;2022-12-05T11:50:51;101487.84;;;21.37;65.64
53262;BME280;39658;51.090;-1.786;2022-12-05T11:53:44;101487.22;;;21.35;66.32
53262;BME280;39658;51.090;-1.786;2022-12-05T11:56:21;101489.94;;;21.35;68.22
53262;BME280;39658;51.090;-1.786;2022-12-05T11:59:07;101492.22;;;21.38;68.72
53262;BME280;39658;51.090;-1.786;2022-12-05T12:01:47;101500.97;;;21.40;69.35
53262;BME280;39658;51.090;-1.786;2022-12-05T12:07:24;101491.59;;;21.42;70.25
53262;BME280;39658;51.090;-1.786;2022-12-05T12:10:00;101490.56;;;21.43;67.00
53262;BME280;39658;51.090;-1.786;2022-12-05T12:12:40;101489.94;;;21.48;67.38
53262;BME280;39658;51.090;-1.786;2022-12-05T12:15:27;101496.81;;;21.50;68.04
53262;BME280;39658;51.090;-1.786;2022-12-05T12:18:01;101494.31;;;21.49;69.19
53262;BME280;39658;51.090;-1.786;2022-12-05T12:20:43;101491.81;;;21.47;68.17
53262;BME280;39658;51.090;-1.786;2022-12-05T12:23:24;101488.47;;;21.45;69.03
53262;BME280;39658;51.090;-1.786;2022-12-05T12:26:04;101485.97;;;21.44;68.88
53262;BME280;39658;51.090;-1.786;2022-12-05T12:28:38;101489.72;;;21.43;69.84
53262;BME280;39658;51.090;-1.786;2022-12-05T12:31:20;101483.28;;;21.44;66.89
53262;BME280;39658;51.090;-1.786;2022-12-05T12:33:56;101486.19;;;21.42;67.23
53262;BME280;39658;51.090;-1.786;2022-12-05T12:36:35;101484.09;;;21.38;67.71
53262;BME280;39658;51.090;-1.786;2022-12-05T12:39:19;101483.47;;;21.36;69.34
53262;BME280;39658;51.090;-1.786;2022-12-05T12:42:04;101483.25;;;21.31;70.40
53262;BME280;39658;51.090;-1.786;2022-12-05T12:45:05;101476.59;;;21.26;72.13
53262;BME280;39658;51.090;-1.786;2022-12-05T12:47:50;101471.78;;;21.22;72.86
53262;BME280;39658;51.090;-1.786;2022-12-05T12:50:21;101476.94;;;21.17;73.02
53262;BME280;39658;51.090;-1.786;2022-12-05T12:53:10;101481.94;;;21.13;73.72
53262;BME280;39658;51.090;-1.786;2022-12-05T12:55:49;101473.41;;;21.10;73.70
53262;BME280;39658;51.090;-1.786;2022-12-05T12:58:31;101466.94;;;21.04;72.94
53262;BME280;39658;51.090;-1.786;2022-12-05T13:01:04;101464.44;;;21.03;71.59
53262;BME280;39658;51.090;-1.786;2022-12-05T13:03:41;101463.81;;;21.01;70.62
53262;BME280;39658;51.090;-1.786;2022-12-05T13:06:14;101461.72;;;20.96;70.87